หน้าหลัก
METAR-TAF:

METAR-TAF

ท่าอากาศยาน :

กอเทนเบิร์ก, สวีเดน

ละติจูด: 57-47N, ลองจิจูด: 011-53E, ความสูง: 20 ม.

การสังเกตสภาพอากาศปัจจุบัน

รายงานได้ทำขึ้นเมื่อ 40 นาทีที่แล้ว ณ เวลา 21:50 UTC
ลมสงบ
อุณหภูมิ 2°C
ความชื้น 93%
ความกดอากาศ 1017 hPa
ทัศนวิสัย 10 กม. หรือมากกว่า

METAR: ESGP 262150Z AUTO 00000KT 9999 OVC018/// 02/01 Q1017

เวลา: 23:30 (22:30 UTC)

การพยากรณ์

รายงานได้ทำขึ้นเมื่อ 5 ชั่วโมงและ 33 นาทีที่แล้ว ณ เวลา 16:57 UTC
การพยากรณ์มีผลตั้งแต่วันที่ 26 ณ เวลา 16 UTC จนถึงวันที่ 26 ณ เวลา 19 UTC
ลม 5 นอตจากเหนือ/ตะวันออกเฉียงเหนือ
ทัศนวิสัย 10 กม. หรือมากกว่า
มีเมฆมาก มืดครึ้มที่ความสูง 1000 ฟุต
กำลังกลายเป็น
ตั้งแต่วันที่ 26 ณ เวลา 16 UTC จนถึงวันที่ 26 ณ เวลา 18 UTC
มีเมฆเป็นส่วนมากเว้นเป็นระยะที่ความสูง 700 ฟุต

TAF: ESGP 261657Z 2616/2619 02005KT 9999 OVC010 BECMG 2616/2618 BKN007

สังเกตการณ์สภาพอากาศและพยากรณ์อากาศของสนามบินมากกว่า 4000 แห่ง (รายงาน METAR และ TAF).

สถานีที่ดูได้จะแสดงไว้ด้วยจุดสีเหลืองและสีแดงบนแผนที่.

เลื่อนเมาส์ไปเหนือจุดเพื่อดูชื่อสถานี.

แล้วคลิกเพื่อดูสังเกตการณ์และการพยากรณ์สภาพอากาศ.

ในการเปลี่ยนแผนที่: คลิกที่ปุ่มสีเขียวที่มีกากบาทสีดำเพื่อซูมเข้า; ที่ปุ่มสีเขียวที่มีขีดเพื่อซูมออก; หรือที่ลูกศรสีเขียวเพื่อไปยังแผนที่ที่อยู่ติดกัน.


METAR-TAF: